createdAt,value
2019-01-21T00:01:34.315Z,156.87
2019-01-21T00:09:33.537Z,218.40
2019-01-21T00:17:46.987Z,276.77
2019-01-21T00:20:17.370Z,162.60
2019-01-21T00:22:47.626Z,238.80
2019-01-21T00:25:17.804Z,245.37
2019-01-21T00:27:47.982Z,189.30
2019-01-21T00:30:18.259Z,298.50
2019-01-21T00:32:48.511Z,203.23
2019-01-21T00:35:19.003Z,284.07
2019-01-21T00:37:49.178Z,177.33
2019-01-21T00:40:19.482Z,178.93
2019-01-21T00:42:49.746Z,138.83
2019-01-21T00:45:20.013Z,193.57
2019-01-21T00:47:50.207Z,169.87
2019-01-21T00:50:20.488Z,215.33
2019-01-21T00:52:50.758Z,212.97
2019-01-21T00:55:20.957Z,121.07
2019-01-21T00:57:51.239Z,178.37
2019-01-21T01:00:23.732Z,204.93
2019-01-21T01:02:53.924Z,172.13
2019-01-21T01:08:20.848Z,128.13
2019-01-21T01:10:51.199Z,125.83
2019-01-21T01:13:21.381Z,143.40
2019-01-21T01:15:51.639Z,109.20
2019-01-21T01:18:21.949Z,84.87
2019-01-21T01:20:52.132Z,139.43
2019-01-21T01:23:22.338Z,124.53
2019-01-21T01:25:52.610Z,95.87
2019-01-21T01:28:22.882Z,86.27
2019-01-21T01:30:53.053Z,76.00
2019-01-21T01:33:23.226Z,51.93
2019-01-21T01:35:53.495Z,41.83
2019-01-21T01:38:23.653Z,53.00
2019-01-21T01:40:53.926Z,27.97
2019-01-21T01:43:24.191Z,31.17
2019-01-21T01:45:54.370Z,26.20
2019-01-21T01:48:24.522Z,38.97
2019-01-21T01:50:54.798Z,46.00
2019-01-21T01:53:25.083Z,60.57
2019-01-21T01:55:55.307Z,99.63
2019-01-21T01:58:25.481Z,89.07
2019-01-21T02:00:55.751Z,122.70
2019-01-21T02:03:26.040Z,80.20
2019-01-21T02:05:56.223Z,90.17
2019-01-21T02:13:48.607Z,118.13
2019-01-21T02:16:19.086Z,82.17
2019-01-21T02:18:49.272Z,69.40
2019-01-21T02:31:31.052Z,88.30
2019-01-21T02:37:47.249Z,86.73
2019-01-21T02:44:03.393Z,99.13
2019-01-21T02:46:55.974Z,124.43
2019-01-21T02:52:48.321Z,61.77
2019-01-21T02:55:46.885Z,109.53
2019-01-21T03:04:54.486Z,53.43
2019-01-21T03:07:56.016Z,33.80
2019-01-21T03:10:52.640Z,42.10
2019-01-21T03:16:59.448Z,39.20
2019-01-21T03:26:19.511Z,57.87
2019-01-21T03:29:13.055Z,65.00
2019-01-21T03:35:40.171Z,51.20
2019-01-21T03:38:57.401Z,70.07
2019-01-21T03:47:50.483Z,113.93
2019-01-21T03:57:07.253Z,85.10
2019-01-21T03:59:59.951Z,92.73
2019-01-21T04:03:17.348Z,158.43
2019-01-21T04:09:19.978Z,85.70
2019-01-21T04:15:52.015Z,239.40
2019-01-21T04:18:59.718Z,95.27
2019-01-21T04:28:19.899Z,50.83
2019-01-21T04:31:27.728Z,43.60
2019-01-21T04:37:30.150Z,169.27
2019-01-21T04:40:37.945Z,48.10
2019-01-21T04:46:38.279Z,68.73
2019-01-21T04:52:52.000Z,59.70
2019-01-21T04:55:59.812Z,59.20
2019-01-21T05:02:29.941Z,47.13
2019-01-21T05:05:27.531Z,46.33
2019-01-21T05:11:55.547Z,45.43
2019-01-21T05:21:03.984Z,63.87
2019-01-21T05:30:32.595Z,67.00
2019-01-21T05:36:23.308Z,101.73
2019-01-21T05:42:36.519Z,88.57
2019-01-21T05:45:44.210Z,52.03
2019-01-21T05:54:44.395Z,58.23
2019-01-21T06:00:32.772Z,61.27
2019-01-21T06:10:29.655Z,60.03
2019-01-21T06:13:37.351Z,67.63
2019-01-21T06:19:40.813Z,83.73
2019-01-21T06:22:34.810Z,65.60
2019-01-21T06:25:42.629Z,102.40
2019-01-21T06:28:50.408Z,81.20
2019-01-21T06:31:47.300Z,110.93
2019-01-21T06:37:38.582Z,119.10
2019-01-21T06:40:46.829Z,100.37
2019-01-21T06:47:02.554Z,82.03
2019-01-21T06:55:51.198Z,97.80
2019-01-21T07:02:06.427Z,53.23
2019-01-21T07:08:19.109Z,60.07
2019-01-21T07:17:50.446Z,141.73
2019-01-21T07:20:58.155Z,65.07
2019-01-21T07:24:01.455Z,54.00
2019-01-21T07:27:09.140Z,73.30
2019-01-21T07:30:17.063Z,88.50
2019-01-21T07:33:34.411Z,87.17
2019-01-21T07:36:43.485Z,68.33
2019-01-21T07:39:36.227Z,94.77
2019-01-21T07:45:56.537Z,164.00
2019-01-21T07:59:05.787Z,86.40
2019-01-21T08:05:15.427Z,88.23
2019-01-21T08:11:29.612Z,86.40
2019-01-21T08:14:22.192Z,94.10
2019-01-21T08:24:10.633Z,100.67
2019-01-21T08:27:21.898Z,135.80
2019-01-21T08:30:19.257Z,113.93
2019-01-21T08:39:39.582Z,98.77
2019-01-21T08:51:45.542Z,101.57
2019-01-21T08:54:58.998Z,78.77
2019-01-21T09:00:40.979Z,83.17
2019-01-21T09:09:21.495Z,78.37
2019-01-21T09:12:07.268Z,60.13
2019-01-21T09:21:18.994Z,69.70
2019-01-21T09:33:42.980Z,109.17
2019-01-21T10:05:02.827Z,94.90
2019-01-21T10:13:41.687Z,97.13
2019-01-21T10:25:31.933Z,110.43
2019-01-21T10:31:24.312Z,134.37
2019-01-21T10:37:18.110Z,126.23
2019-01-21T10:43:27.485Z,145.37
2019-01-21T10:46:20.774Z,140.40
2019-01-21T10:49:28.660Z,122.43
2019-01-21T10:56:16.507Z,134.53
2019-01-21T10:59:24.282Z,109.50
2019-01-21T11:08:24.494Z,90.03
2019-01-21T11:14:33.778Z,88.37
2019-01-21T11:23:17.586Z,97.17
2019-01-21T11:29:01.344Z,81.33
2019-01-21T11:41:58.298Z,73.23
2019-01-21T11:51:04.167Z,59.57
2019-01-21T11:54:07.510Z,53.40
2019-01-21T12:00:07.000Z,57.67
2019-01-21T12:15:18.950Z,51.90
2019-01-21T12:18:28.016Z,40.13
2019-01-21T12:24:48.862Z,40.47
2019-01-21T12:30:44.631Z,36.40
2019-01-21T12:36:34.169Z,31.17
2019-01-21T12:39:23.039Z,29.60
2019-01-21T12:45:39.832Z,23.73
2019-01-21T12:55:09.380Z,32.13
2019-01-21T13:04:11.267Z,13.27
2019-01-21T13:07:04.530Z,16.50
2019-01-21T13:09:57.861Z,96.60
2019-01-21T13:19:57.043Z,29.83
2019-01-21T13:28:51.671Z,28.93
2019-01-21T13:41:26.151Z,40.07
2019-01-21T13:47:44.744Z,39.27
2019-01-21T13:53:42.543Z,58.17
2019-01-21T14:03:18.272Z,51.33
2019-01-21T14:12:02.191Z,53.23
2019-01-21T14:14:41.716Z,57.47
2019-01-21T14:20:49.190Z,58.60
2019-01-21T14:39:46.338Z,117.27
2019-01-21T14:45:58.945Z,111.83
2019-01-21T15:05:07.506Z,107.17
2019-01-21T15:11:06.683Z,105.03
2019-01-21T15:14:14.627Z,121.57
2019-01-21T15:20:37.994Z,151.07
2019-01-21T15:26:28.778Z,118.07
2019-01-21T15:29:36.563Z,120.13
2019-01-21T15:35:35.085Z,194.47
2019-01-21T15:38:49.363Z,193.03
2019-01-21T15:48:27.668Z,114.30
2019-01-21T15:51:35.574Z,93.87
2019-01-21T15:54:43.481Z,82.93
2019-01-21T15:57:58.799Z,125.20
2019-01-21T16:01:06.613Z,98.90
2019-01-21T16:10:22.301Z,125.07
2019-01-21T16:13:14.458Z,137.93
2019-01-21T16:16:22.365Z,141.27
2019-01-21T16:19:13.515Z,102.07
2019-01-21T16:25:23.342Z,129.47
2019-01-21T16:34:40.974Z,134.43
2019-01-21T16:37:20.934Z,167.30
2019-01-21T16:40:26.041Z,175.13
2019-01-21T16:42:56.425Z,188.00
2019-01-21T16:45:26.759Z,182.93
2019-01-21T16:47:56.967Z,193.57
2019-01-21T16:50:27.212Z,195.73
2019-01-21T16:52:57.515Z,182.77
2019-01-21T16:55:27.801Z,203.77
2019-01-21T16:57:59.285Z,238.00
2019-01-21T17:00:30.057Z,226.27
2019-01-21T17:03:00.463Z,268.83
2019-01-21T17:05:30.728Z,229.27
2019-01-21T17:08:00.966Z,206.40
2019-01-21T17:10:31.211Z,159.60
2019-01-21T17:13:01.398Z,136.70
2019-01-21T17:15:31.642Z,156.23
2019-01-21T17:18:01.950Z,152.20
2019-01-21T17:20:32.190Z,112.57
2019-01-21T17:23:02.385Z,122.03
2019-01-21T17:25:32.676Z,114.63
2019-01-21T17:28:02.989Z,132.43
2019-01-21T17:30:33.223Z,150.83
2019-01-21T17:33:03.448Z,156.10
2019-01-21T17:35:33.691Z,129.77
2019-01-21T17:38:04.486Z,125.37
2019-01-21T17:40:34.728Z,175.90
2019-01-21T17:43:05.016Z,181.03
2019-01-21T17:45:35.257Z,151.20
2019-01-21T17:51:02.318Z,356.43
2019-01-21T17:53:32.629Z,152.27
2019-01-21T17:56:02.945Z,129.67
2019-01-21T17:58:33.346Z,135.47
2019-01-21T18:01:03.659Z,121.70
2019-01-21T18:03:33.898Z,143.37
2019-01-21T18:06:04.136Z,193.57
2019-01-21T18:08:34.797Z,221.70
2019-01-21T18:11:05.097Z,177.10
2019-01-21T18:13:35.314Z,124.77
2019-01-21T18:16:05.598Z,175.23
2019-01-21T18:18:35.889Z,166.43
2019-01-21T18:21:07.486Z,140.30
2019-01-21T18:23:38.338Z,153.73
2019-01-21T18:26:08.526Z,142.53
2019-01-21T18:28:38.818Z,159.37
2019-01-21T18:31:09.018Z,186.00
2019-01-21T18:33:39.303Z,155.87
2019-01-21T18:36:09.673Z,156.20
2019-01-21T18:38:39.870Z,123.60
2019-01-21T18:41:10.081Z,125.40
2019-01-21T18:43:40.367Z,126.53
2019-01-21T18:46:10.646Z,127.27
2019-01-21T18:48:40.845Z,168.07
2019-01-21T18:51:11.024Z,156.47
2019-01-21T18:53:41.336Z,168.23
2019-01-21T18:56:11.623Z,227.77
2019-01-21T18:58:41.822Z,211.00
2019-01-21T19:01:12.024Z,259.00
2019-01-21T19:03:42.328Z,223.20
2019-01-21T19:06:12.594Z,182.80
2019-01-21T19:08:42.835Z,228.20
2019-01-21T19:11:13.146Z,161.17
2019-01-21T19:13:43.354Z,168.30
2019-01-21T19:16:13.550Z,184.43
2019-01-21T19:18:43.839Z,178.80
2019-01-21T19:21:14.129Z,192.20
2019-01-21T19:23:44.535Z,172.37
2019-01-21T19:26:14.916Z,155.80
2019-01-21T19:28:45.214Z,167.43
2019-01-21T19:31:15.553Z,208.33
2019-01-21T19:33:45.760Z,200.60
2019-01-21T19:36:15.957Z,202.20
2019-01-21T19:38:46.228Z,183.60
2019-01-21T19:41:16.549Z,178.73
2019-01-21T19:43:46.749Z,230.77
2019-01-21T19:46:17.069Z,240.10
2019-01-21T19:48:47.388Z,224.33
2019-01-21T19:51:17.605Z,241.90
2019-01-21T19:53:47.911Z,208.77
2019-01-21T19:56:18.185Z,237.13
2019-01-21T19:58:48.779Z,210.97
2019-01-21T20:01:18.988Z,222.07
2019-01-21T20:03:49.263Z,228.27
2019-01-21T20:06:19.700Z,265.03
2019-01-21T20:08:50.031Z,253.47
2019-01-21T20:11:20.247Z,277.63
2019-01-21T20:13:50.569Z,244.13
2019-01-21T20:16:20.851Z,314.90
2019-01-21T20:18:51.051Z,261.57
2019-01-21T20:21:21.240Z,246.07
2019-01-21T20:23:51.830Z,240.07
2019-01-21T20:26:22.267Z,217.80
2019-01-21T20:28:52.490Z,242.23
2019-01-21T20:31:22.904Z,245.87
2019-01-21T20:33:53.123Z,265.83
2019-01-21T20:36:23.414Z,264.17
2019-01-21T20:38:53.724Z,285.40
2019-01-21T20:41:24.005Z,257.43
2019-01-21T20:43:54.255Z,275.40
2019-01-21T20:46:24.458Z,264.87
2019-01-21T20:48:57.471Z,266.67
2019-01-21T20:51:27.777Z,281.60
2019-01-21T20:53:58.001Z,231.83
2019-01-21T20:56:28.180Z,252.30
2019-01-21T20:58:58.490Z,295.03
2019-01-21T21:01:28.785Z,272.17
2019-01-21T21:03:58.967Z,252.17
2019-01-21T21:06:29.281Z,239.37
2019-01-21T21:08:59.581Z,264.33
2019-01-21T21:11:29.777Z,277.67
2019-01-21T21:14:00.070Z,258.10
2019-01-21T21:16:30.367Z,277.53
2019-01-21T21:19:00.566Z,257.90
2019-01-21T21:21:30.747Z,261.00
2019-01-21T21:24:01.062Z,276.00
2019-01-21T21:26:31.653Z,260.83
2019-01-21T21:29:02.254Z,239.03
2019-01-21T21:31:32.610Z,265.07
2019-01-21T21:34:02.912Z,240.73
2019-01-21T21:36:35.035Z,230.23
2019-01-21T21:42:16.050Z,253.00
2019-01-21T21:44:46.380Z,214.47
2019-01-21T21:47:16.696Z,233.27
2019-01-21T21:49:46.905Z,225.07
2019-01-21T21:52:17.195Z,235.47
2019-01-21T21:54:47.460Z,221.27
2019-01-21T21:57:17.679Z,210.80
2019-01-21T21:59:47.999Z,217.50
2019-01-21T22:02:18.321Z,212.50
2019-01-21T22:04:48.500Z,210.87
2019-01-21T22:07:18.667Z,192.00
2019-01-21T22:09:48.967Z,224.13
2019-01-21T22:12:19.271Z,221.00
2019-01-21T22:14:49.461Z,219.43
2019-01-21T22:17:19.745Z,199.00
2019-01-21T22:19:50.025Z,207.20
2019-01-21T22:22:20.325Z,226.30
2019-01-21T22:24:50.753Z,238.03
2019-01-21T22:27:22.595Z,182.13
2019-01-21T22:29:54.718Z,191.73
2019-01-21T22:32:24.916Z,210.23
2019-01-21T22:34:55.309Z,207.07
2019-01-21T22:37:25.601Z,204.40
2019-01-21T22:39:55.823Z,175.87
2019-01-21T22:42:26.036Z,139.47
2019-01-21T22:44:56.316Z,148.73
2019-01-21T22:47:26.587Z,136.87
2019-01-21T22:49:56.750Z,141.10
2019-01-21T22:52:26.938Z,134.20
2019-01-21T22:54:57.212Z,131.20
2019-01-21T22:57:27.516Z,141.43
2019-01-21T22:59:57.710Z,105.60
2019-01-21T23:02:28.056Z,166.60
2019-01-21T23:04:58.641Z,190.40
2019-01-21T23:07:28.967Z,211.93
2019-01-21T23:09:59.155Z,208.47
2019-01-21T23:12:29.411Z,206.67
2019-01-21T23:14:59.702Z,160.60
2019-01-21T23:17:30.178Z,180.03
2019-01-21T23:20:00.360Z,176.40
2019-01-21T23:22:30.563Z,182.67
2019-01-21T23:25:00.845Z,176.73
2019-01-21T23:27:31.161Z,186.97
2019-01-21T23:30:01.968Z,211.47
2019-01-21T23:32:32.178Z,221.53
2019-01-21T23:35:02.518Z,200.77
2019-01-21T23:37:32.905Z,208.53
2019-01-21T23:40:03.100Z,211.43
2019-01-21T23:42:33.293Z,201.70
2019-01-21T23:45:03.387Z,206.80
2019-01-21T23:47:33.482Z,195.73
2019-01-21T23:50:03.560Z,188.43
2019-01-21T23:52:33.452Z,186.50
2019-01-21T23:55:03.326Z,175.97
2019-01-21T23:57:33.524Z,159.63
